createdAt,value
2022-12-03T00:00:21.981Z,101347.75
2022-12-03T00:03:24.730Z,101346.78
2022-12-03T00:06:31.464Z,101346.09
2022-12-03T00:09:37.174Z,101352.09
2022-12-03T00:12:39.314Z,101355.50
2022-12-03T00:15:41.871Z,101358.19
2022-12-03T00:18:44.154Z,101365.00
2022-12-03T00:21:46.626Z,101367.62
2022-12-03T00:24:48.821Z,101365.06
2022-12-03T00:27:51.327Z,101370.91
2022-12-03T00:30:54.267Z,101365.84
2022-12-03T00:33:56.772Z,101367.62
2022-12-03T00:36:59.068Z,101372.75
2022-12-03T00:40:02.636Z,101366.69
2022-12-03T00:43:04.819Z,101377.91
2022-12-03T00:46:07.505Z,101375.22
2022-12-03T00:49:10.166Z,101375.97
2022-12-03T00:52:12.703Z,101374.28
2022-12-03T00:55:14.982Z,101377.78
2022-12-03T00:58:18.259Z,101383.72
2022-12-03T01:01:20.658Z,101373.44
2022-12-03T01:04:23.375Z,101376.84
2022-12-03T01:07:25.648Z,101376.03
2022-12-03T01:10:28.179Z,101374.41
2022-12-03T01:13:30.499Z,101374.38
2022-12-03T01:16:33.518Z,101367.47
2022-12-03T01:19:35.977Z,101364.06
2022-12-03T01:22:38.494Z,101365.81
2022-12-03T01:25:40.722Z,101369.13
2022-12-03T01:28:43.437Z,101368.31
2022-12-03T01:32:04.196Z,101374.28
2022-12-03T01:35:07.172Z,101370.84
2022-12-03T01:38:09.434Z,101368.34
2022-12-03T01:41:12.195Z,101379.41
2022-12-03T01:44:19.505Z,101375.16
2022-12-03T01:47:24.611Z,101378.66
2022-12-03T01:50:31.796Z,101378.72
2022-12-03T01:53:34.540Z,101376.25
2022-12-03T01:56:36.827Z,101383.88
2022-12-03T01:59:39.615Z,101380.28
2022-12-03T02:02:43.389Z,101384.53
2022-12-03T02:05:45.834Z,101375.28
2022-12-03T02:08:48.577Z,101377.03
2022-12-03T02:11:51.034Z,101376.09
2022-12-03T02:14:53.743Z,101374.41
2022-12-03T02:17:56.682Z,101374.53
2022-12-03T02:21:06.449Z,101367.69
2022-12-03T02:24:16.262Z,101365.94
2022-12-03T02:27:18.602Z,101370.19
2022-12-03T02:30:22.451Z,101371.81
2022-12-03T02:33:24.930Z,101367.53
2022-12-03T02:36:27.607Z,101362.44
2022-12-03T02:39:30.800Z,101370.13
2022-12-03T02:42:36.046Z,101369.25
2022-12-03T02:45:46.003Z,101374.41
2022-12-03T02:48:48.978Z,101367.59
2022-12-03T02:51:51.409Z,101374.53
2022-12-03T02:54:54.382Z,101373.63
2022-12-03T02:57:57.258Z,101369.31
2022-12-03T03:01:00.975Z,101364.00
2022-12-03T03:04:04.519Z,101370.84
2022-12-03T03:07:07.506Z,101370.84
2022-12-03T03:10:12.374Z,101375.16
2022-12-03T03:13:16.989Z,101368.47
2022-12-03T03:16:19.253Z,101363.31
2022-12-03T03:19:23.263Z,101366.00
2022-12-03T03:22:34.145Z,101366.75
2022-12-03T03:25:37.593Z,101366.75
2022-12-03T03:28:45.040Z,101371.97
2022-12-03T03:31:47.989Z,101372.75
2022-12-03T03:34:50.402Z,101374.38
2022-12-03T03:37:53.724Z,101364.19
2022-12-03T03:40:56.382Z,101373.72
2022-12-03T03:43:59.012Z,101368.56
2022-12-03T03:47:01.764Z,101365.94
2022-12-03T03:50:04.821Z,101372.03
2022-12-03T03:53:07.116Z,101370.31
2022-12-03T03:56:10.635Z,101366.88
2022-12-03T03:59:13.593Z,101370.31
2022-12-03T04:02:19.922Z,101367.56
2022-12-03T04:05:23.298Z,101371.03
2022-12-03T04:08:25.616Z,101366.78
2022-12-03T04:11:46.792Z,101369.25
2022-12-03T04:14:48.998Z,101368.44
2022-12-03T04:18:10.282Z,101374.66
2022-12-03T04:21:35.543Z,101371.12
2022-12-03T04:24:37.999Z,101383.16
2022-12-03T04:27:58.645Z,101381.53
2022-12-03T04:31:21.215Z,101385.69
2022-12-03T04:34:42.330Z,101374.81
2022-12-03T04:37:44.843Z,101375.69
2022-12-03T04:41:04.239Z,101374.00
2022-12-03T04:44:25.740Z,101376.50
2022-12-03T04:47:27.997Z,101381.59
2022-12-03T04:50:30.474Z,101368.63
2022-12-03T04:53:35.366Z,101369.50
2022-12-03T04:56:38.640Z,101381.41
2022-12-03T04:59:41.151Z,101384.75
2022-12-03T05:02:43.704Z,101383.91
2022-12-03T05:05:46.257Z,101385.72
2022-12-03T05:08:48.874Z,101394.25
2022-12-03T05:11:51.184Z,101385.50
2022-12-03T05:14:53.957Z,101395.03
2022-12-03T05:17:56.369Z,101390.50
2022-12-03T05:20:58.839Z,101387.75
2022-12-03T05:24:01.268Z,101398.75
2022-12-03T05:27:03.790Z,101397.19
2022-12-03T05:30:06.406Z,101396.37
2022-12-03T05:33:08.870Z,101400.78
2022-12-03T05:36:11.102Z,101401.56
2022-12-03T05:39:13.526Z,101396.31
2022-12-03T05:42:34.560Z,101391.25
2022-12-03T05:45:38.520Z,101394.69
2022-12-03T05:48:48.060Z,101391.16
2022-12-03T05:51:55.097Z,101392.78
2022-12-03T05:55:00.435Z,101394.56
2022-12-03T05:58:04.538Z,101390.38
2022-12-03T06:01:06.805Z,101399.91
2022-12-03T06:04:09.423Z,101408.41
2022-12-03T06:07:14.134Z,101403.25
2022-12-03T06:10:19.334Z,101416.97
2022-12-03T06:13:21.618Z,101420.34
2022-12-03T06:16:24.102Z,101416.25
2022-12-03T06:19:26.347Z,101417.81
2022-12-03T06:22:28.874Z,101419.69
2022-12-03T06:25:31.133Z,101411.16
2022-12-03T06:28:33.637Z,101406.91
2022-12-03T06:31:35.965Z,101410.41
2022-12-03T06:34:38.532Z,101404.75
2022-12-03T06:37:40.694Z,101412.38
2022-12-03T06:40:43.154Z,101404.59
2022-12-03T06:43:45.338Z,101405.56
2022-12-03T06:46:50.457Z,101416.78
2022-12-03T06:49:52.733Z,101419.47
2022-12-03T06:52:55.195Z,101415.97
2022-12-03T06:55:57.415Z,101424.44
2022-12-03T06:59:00.230Z,101418.50
2022-12-03T07:02:02.607Z,101419.38
2022-12-03T07:05:05.565Z,101425.66
2022-12-03T07:08:07.977Z,101424.72
2022-12-03T07:11:30.482Z,101423.84
2022-12-03T07:14:32.825Z,101423.09
2022-12-03T07:17:35.366Z,101419.81
2022-12-03T07:20:37.864Z,101414.69
2022-12-03T07:23:40.546Z,101416.47
2022-12-03T07:26:42.805Z,101418.22
2022-12-03T07:29:45.620Z,101427.69
2022-12-03T07:32:48.323Z,101426.72
2022-12-03T07:35:50.894Z,101425.12
2022-12-03T07:38:53.183Z,101430.16
2022-12-03T07:41:55.766Z,101428.47
2022-12-03T07:44:57.991Z,101427.63
2022-12-03T07:48:00.521Z,101428.56
2022-12-03T07:51:02.722Z,101430.41
2022-12-03T07:54:05.370Z,101432.12
2022-12-03T07:57:07.624Z,101421.78
2022-12-03T08:00:10.706Z,101422.66
2022-12-03T08:03:13.315Z,101422.84
2022-12-03T08:06:15.597Z,101427.34
2022-12-03T08:09:18.294Z,101432.53
2022-12-03T08:12:23.886Z,101437.78
2022-12-03T08:15:30.126Z,101432.75
2022-12-03T08:18:36.144Z,101427.75
2022-12-03T08:21:39.155Z,101421.78
2022-12-03T08:24:41.428Z,101433.84
2022-12-03T08:27:43.888Z,101436.50
2022-12-03T08:31:05.020Z,101441.66
2022-12-03T08:34:27.827Z,101433.84
2022-12-03T08:37:30.273Z,101434.88
2022-12-03T08:40:35.323Z,101437.50
2022-12-03T08:43:42.759Z,101425.56
2022-12-03T08:46:45.294Z,101440.16
2022-12-03T08:49:51.508Z,101435.09
2022-12-03T08:52:56.014Z,101437.72
2022-12-03T08:56:02.908Z,101429.91
2022-12-03T08:59:14.643Z,101441.16
2022-12-03T09:02:22.406Z,101449.84
2022-12-03T09:05:33.777Z,101443.87
2022-12-03T09:08:36.120Z,101449.88
2022-12-03T09:11:38.980Z,101450.81
2022-12-03T09:14:41.175Z,101447.44
2022-12-03T09:17:43.624Z,101440.59
2022-12-03T09:20:45.903Z,101437.09
2022-12-03T09:23:48.958Z,101440.56
2022-12-03T09:26:51.364Z,101443.19
2022-12-03T09:29:53.925Z,101438.03
2022-12-03T09:32:56.309Z,101427.69
2022-12-03T09:35:59.430Z,101429.28
2022-12-03T09:39:01.724Z,101434.50
2022-12-03T09:42:04.448Z,101417.47
2022-12-03T09:45:10.805Z,101417.44
2022-12-03T09:48:15.133Z,101424.38
2022-12-03T09:51:17.501Z,101418.44
2022-12-03T09:54:24.558Z,101417.53
2022-12-03T09:57:26.741Z,101407.22
2022-12-03T10:00:30.271Z,101400.31
2022-12-03T10:03:32.907Z,101402.91
2022-12-03T10:06:35.248Z,101396.91
2022-12-03T10:09:37.891Z,101406.34
2022-12-03T10:12:40.217Z,101408.88
2022-12-03T10:15:42.786Z,101401.19
2022-12-03T10:18:47.543Z,101396.78
2022-12-03T10:21:50.449Z,101389.72
2022-12-03T10:25:19.199Z,101384.44
2022-12-03T10:28:32.261Z,101380.00
2022-12-03T10:31:37.323Z,101378.94
2022-12-03T10:34:40.858Z,101373.03
2022-12-03T10:38:02.527Z,101361.16
2022-12-03T10:41:20.298Z,101367.38
2022-12-03T10:44:25.132Z,101373.41
2022-12-03T10:47:27.714Z,101356.34
2022-12-03T10:50:30.210Z,101367.38
2022-12-03T10:53:35.615Z,101358.69
2022-12-03T10:56:37.839Z,101359.22
2022-12-03T10:59:41.622Z,101349.56
2022-12-03T11:02:44.391Z,101347.81
2022-12-03T11:05:46.929Z,101347.72
2022-12-03T11:08:57.870Z,101345.81
2022-12-03T11:12:08.094Z,101340.03
2022-12-03T11:15:16.616Z,101337.19
2022-12-03T11:18:34.473Z,101329.50
2022-12-03T11:21:56.715Z,101322.88
2022-12-03T11:25:18.052Z,101322.84
2022-12-03T11:28:20.315Z,101310.03
2022-12-03T11:31:43.357Z,101312.47
2022-12-03T11:34:45.771Z,101310.00
2022-12-03T11:37:48.307Z,101302.22
2022-12-03T11:41:09.125Z,101302.03
2022-12-03T11:44:31.226Z,101301.50
2022-12-03T11:47:37.031Z,101293.06
2022-12-03T11:50:40.612Z,101298.19
2022-12-03T11:53:43.559Z,101302.53
2022-12-03T11:56:48.934Z,101295.66
2022-12-03T12:00:01.879Z,101302.53
2022-12-03T12:03:21.498Z,101297.38
2022-12-03T12:06:24.178Z,101293.88
2022-12-03T12:09:45.332Z,101290.47
2022-12-03T12:12:54.659Z,101283.56
2022-12-03T12:16:20.289Z,101294.78
2022-12-03T12:19:36.420Z,101293.19
2022-12-03T12:22:39.325Z,101280.16
2022-12-03T12:25:42.057Z,101266.28
2022-12-03T12:28:44.372Z,101268.06
2022-12-03T12:31:53.648Z,101270.63
2022-12-03T12:35:02.327Z,101269.72
2022-12-03T12:38:07.616Z,101273.31
2022-12-03T12:41:09.911Z,101279.34
2022-12-03T12:44:15.084Z,101270.72
2022-12-03T12:47:17.322Z,101272.50
2022-12-03T12:50:20.209Z,101266.53
2022-12-03T12:53:22.915Z,101264.03
2022-12-03T12:56:32.443Z,101266.72
2022-12-03T12:59:34.755Z,101256.38
2022-12-03T13:02:41.113Z,101256.38
2022-12-03T13:05:45.079Z,101252.12
2022-12-03T13:08:48.770Z,101252.94
2022-12-03T13:11:58.512Z,101256.41
2022-12-03T13:15:00.985Z,101262.44
2022-12-03T13:18:18.670Z,101255.53
2022-12-03T13:21:22.044Z,101258.97
2022-12-03T13:24:25.978Z,101268.47
2022-12-03T13:27:29.751Z,101272.78
2022-12-03T13:30:33.155Z,101270.19
2022-12-03T13:33:35.654Z,101265.84
2022-12-03T13:36:44.705Z,101264.97
2022-12-03T13:39:52.278Z,101270.19
2022-12-03T13:42:55.140Z,101271.91
2022-12-03T13:45:58.444Z,101273.66
2022-12-03T13:49:02.209Z,101266.75
2022-12-03T13:52:10.077Z,101271.88
2022-12-03T13:55:22.676Z,101272.75
2022-12-03T13:58:25.122Z,101272.78
2022-12-03T14:01:28.261Z,101269.38
2022-12-03T14:04:30.923Z,101270.22
2022-12-03T14:07:33.187Z,101267.63
2022-12-03T14:10:35.894Z,101284.84
2022-12-03T14:13:38.078Z,101280.50
2022-12-03T14:16:41.524Z,101277.94
2022-12-03T14:19:43.945Z,101279.66
2022-12-03T14:22:46.409Z,101285.72
2022-12-03T14:25:48.685Z,101282.28
2022-12-03T14:28:51.190Z,101277.13
2022-12-03T14:31:54.707Z,101283.19
2022-12-03T14:35:01.102Z,101273.72
2022-12-03T14:38:05.135Z,101281.50
2022-12-03T14:41:27.834Z,101279.78
2022-12-03T14:44:30.086Z,101283.22
2022-12-03T14:47:32.645Z,101277.22
2022-12-03T14:50:35.561Z,101270.31
2022-12-03T14:53:38.585Z,101280.66
2022-12-03T14:56:40.826Z,101291.00
2022-12-03T14:59:44.248Z,101291.00
2022-12-03T15:02:47.866Z,101283.22
2022-12-03T15:05:50.524Z,101293.56
2022-12-03T15:08:52.784Z,101286.66
2022-12-03T15:11:55.353Z,101290.97
2022-12-03T15:14:57.502Z,101288.38
2022-12-03T15:18:00.034Z,101286.69
2022-12-03T15:21:02.288Z,101285.81
2022-12-03T15:24:04.952Z,101279.78
2022-12-03T15:27:07.131Z,101288.38
2022-12-03T15:30:09.910Z,101285.78
2022-12-03T15:33:12.341Z,101288.34
2022-12-03T15:36:14.921Z,101282.31
2022-12-03T15:39:17.328Z,101287.44
2022-12-03T15:42:19.863Z,101292.59
2022-12-03T15:45:22.098Z,101301.16
2022-12-03T15:48:24.558Z,101291.72
2022-12-03T15:51:26.873Z,101298.59
2022-12-03T15:54:29.349Z,101296.78
2022-12-03T15:57:33.087Z,101295.06
2022-12-03T16:00:35.617Z,101295.88
2022-12-03T16:03:38.189Z,101296.72
2022-12-03T16:06:40.377Z,101291.53
2022-12-03T16:09:43.044Z,101288.88
2022-12-03T16:12:45.293Z,101290.53
2022-12-03T16:15:47.925Z,101285.34
2022-12-03T16:18:50.090Z,101289.62
2022-12-03T16:21:54.739Z,101289.56
2022-12-03T16:24:56.947Z,101297.19
2022-12-03T16:27:59.462Z,101300.56
2022-12-03T16:31:02.219Z,101300.47
2022-12-03T16:34:07.386Z,101304.75
2022-12-03T16:37:10.504Z,101303.84
2022-12-03T16:40:22.261Z,101301.28
2022-12-03T16:43:24.399Z,101302.91
2022-12-03T16:46:27.080Z,101299.38
2022-12-03T16:49:29.418Z,101303.69
2022-12-03T16:52:31.945Z,101301.03
2022-12-03T16:55:34.254Z,101298.37
2022-12-03T16:58:36.926Z,101300.09
2022-12-03T17:01:39.286Z,101306.88
2022-12-03T17:04:41.835Z,101302.53
2022-12-03T17:07:44.076Z,101303.50
2022-12-03T17:10:46.750Z,101304.31
2022-12-03T17:13:49.574Z,101306.03
2022-12-03T17:16:52.081Z,101311.13
2022-12-03T17:19:54.686Z,101309.38
2022-12-03T17:22:57.926Z,101306.81
2022-12-03T17:26:00.164Z,101308.59
2022-12-03T17:29:03.135Z,101309.41
2022-12-03T17:32:06.643Z,101306.94
2022-12-03T17:35:09.956Z,101313.72
2022-12-03T17:38:12.210Z,101313.75
2022-12-03T17:41:14.728Z,101311.16
2022-12-03T17:44:21.025Z,101309.47
2022-12-03T17:47:23.970Z,101308.63
2022-12-03T17:50:26.338Z,101309.47
2022-12-03T17:53:28.806Z,101305.25
2022-12-03T17:56:31.110Z,101304.41
2022-12-03T17:59:33.697Z,101307.97
2022-12-03T18:02:35.960Z,101303.66
2022-12-03T18:05:38.474Z,101301.94
2022-12-03T18:08:41.221Z,101310.47
2022-12-03T18:11:43.847Z,101308.69
2022-12-03T18:14:46.099Z,101303.53
2022-12-03T18:17:48.631Z,101309.62
2022-12-03T18:20:52.499Z,101303.53
2022-12-03T18:23:55.676Z,101307.87
2022-12-03T18:26:57.934Z,101306.94
2022-12-03T18:30:00.529Z,101305.31
2022-12-03T18:33:02.829Z,101307.87
2022-12-03T18:36:06.739Z,101308.69
2022-12-03T18:39:18.401Z,101306.94
2022-12-03T18:42:21.802Z,101309.41
2022-12-03T18:45:24.603Z,101297.34
2022-12-03T18:48:27.134Z,101305.00
2022-12-03T18:51:29.565Z,101311.81
2022-12-03T18:54:32.159Z,101314.38
2022-12-03T18:57:34.421Z,101318.66
2022-12-03T19:00:38.197Z,101316.06
2022-12-03T19:03:40.580Z,101321.25
2022-12-03T19:06:43.061Z,101310.03
2022-12-03T19:09:45.714Z,101318.53
2022-12-03T19:12:48.340Z,101318.50
2022-12-03T19:15:51.839Z,101314.19
2022-12-03T19:18:55.135Z,101311.56
2022-12-03T19:21:57.395Z,101312.38
2022-12-03T19:24:59.899Z,101316.59
2022-12-03T19:28:02.135Z,101314.84
2022-12-03T19:31:09.005Z,101319.22
2022-12-03T19:34:11.580Z,101317.47
2022-12-03T19:37:14.189Z,101321.06
2022-12-03T19:40:16.552Z,101320.09
2022-12-03T19:43:19.056Z,101325.19
2022-12-03T19:46:22.431Z,101332.94
2022-12-03T19:49:25.008Z,101330.31
2022-12-03T19:52:27.261Z,101332.06
2022-12-03T19:55:29.727Z,101335.63
2022-12-03T19:58:31.986Z,101338.13
2022-12-03T20:01:35.608Z,101332.94
2022-12-03T20:04:38.317Z,101335.34
2022-12-03T20:07:40.594Z,101333.59
2022-12-03T20:10:43.262Z,101330.31
2022-12-03T20:13:45.618Z,101326.75
2022-12-03T20:16:48.431Z,101331.84
2022-12-03T20:19:51.417Z,101320.66
2022-12-03T20:22:54.323Z,101332.84
2022-12-03T20:25:56.677Z,101328.56
2022-12-03T20:28:59.351Z,101335.47
2022-12-03T20:32:02.038Z,101332.06
2022-12-03T20:35:04.888Z,101336.38
2022-12-03T20:38:07.160Z,101326.13
2022-12-03T20:41:11.556Z,101331.53
2022-12-03T20:44:14.016Z,101322.03
2022-12-03T20:47:17.278Z,101328.00
2022-12-03T20:50:19.621Z,101331.41
2022-12-03T20:53:25.659Z,101330.53
2022-12-03T20:56:39.646Z,101327.03
2022-12-03T20:59:42.083Z,101328.72
2022-12-03T21:02:45.249Z,101333.16
2022-12-03T21:05:48.179Z,101335.63
2022-12-03T21:08:52.093Z,101334.00
2022-12-03T21:11:54.702Z,101333.09
2022-12-03T21:14:56.938Z,101331.31
2022-12-03T21:17:59.537Z,101328.63
2022-12-03T21:21:02.495Z,101325.19
2022-12-03T21:24:05.302Z,101322.59
2022-12-03T21:27:07.471Z,101318.25
2022-12-03T21:30:10.200Z,101315.63
2022-12-03T21:33:12.417Z,101313.94
2022-12-03T21:36:16.177Z,101325.06
2022-12-03T21:39:19.381Z,101335.44
2022-12-03T21:42:36.405Z,101333.72
2022-12-03T21:45:39.939Z,101324.25
2022-12-03T21:48:42.718Z,101315.69
2022-12-03T21:51:46.099Z,101317.41
2022-12-03T21:54:51.651Z,101320.25
2022-12-03T21:57:53.856Z,101316.84
2022-12-03T22:00:56.582Z,101314.28
2022-12-03T22:03:59.072Z,101315.97
2022-12-03T22:07:01.534Z,101319.41
2022-12-03T22:10:05.153Z,101313.50
2022-12-03T22:13:07.486Z,101309.38
2022-12-03T22:16:11.279Z,101308.53
2022-12-03T22:19:13.834Z,101318.88
2022-12-03T22:22:16.857Z,101311.19
2022-12-03T22:25:19.084Z,101307.75
2022-12-03T22:28:21.578Z,101304.31
2022-12-03T22:31:23.835Z,101309.50
2022-12-03T22:34:26.497Z,101303.56
2022-12-03T22:37:28.791Z,101292.53
2022-12-03T22:40:31.658Z,101290.00
2022-12-03T22:43:34.116Z,101292.53
2022-12-03T22:46:36.738Z,101293.34
2022-12-03T22:49:39.077Z,101288.22
2022-12-03T22:52:41.596Z,101288.34
2022-12-03T22:55:44.143Z,101295.97
2022-12-03T22:58:46.679Z,101288.09
2022-12-03T23:01:49.043Z,101291.50
2022-12-03T23:04:54.587Z,101294.91
2022-12-03T23:07:56.877Z,101297.53
2022-12-03T23:11:00.102Z,101289.81
2022-12-03T23:14:02.936Z,101288.94
2022-12-03T23:17:05.391Z,101288.09
2022-12-03T23:20:10.490Z,101286.44
2022-12-03T23:23:13.338Z,101280.38
2022-12-03T23:26:16.241Z,101281.25
2022-12-03T23:29:18.759Z,101287.22
2022-12-03T23:32:21.003Z,101278.66
2022-12-03T23:35:23.501Z,101276.00
2022-12-03T23:38:25.736Z,101269.91
2022-12-03T23:41:28.254Z,101272.44
2022-12-03T23:44:32.970Z,101266.47
2022-12-03T23:47:35.481Z,101263.87
2022-12-03T23:50:41.349Z,101263.75
2022-12-03T23:53:44.887Z,101267.16
2022-12-03T23:56:47.202Z,101258.53
2022-12-03T23:59:49.854Z,101265.22
